sensor_id;sensor_type;location;lat;lon;timestamp;P1;durP1;ratioP1;P2;durP2;ratioP2
77864;SDS011;67061;48.524;9.040;2023-02-28T00:00:08;4.60;;;2.28;;
77864;SDS011;67061;48.524;9.040;2023-02-28T00:02:37;3.97;;;1.80;;
77864;SDS011;67061;48.524;9.040;2023-02-28T00:05:04;4.20;;;2.72;;
77864;SDS011;67061;48.524;9.040;2023-02-28T00:07:33;4.20;;;2.97;;
77864;SDS011;67061;48.524;9.040;2023-02-28T00:10:00;4.13;;;2.30;;
77864;SDS011;67061;48.524;9.040;2023-02-28T00:12:29;3.80;;;1.70;;
77864;SDS011;67061;48.524;9.040;2023-02-28T00:14:56;5.13;;;1.95;;
77864;SDS011;67061;48.524;9.040;2023-02-28T00:17:23;4.10;;;3.28;;
77864;SDS011;67061;48.524;9.040;2023-02-28T00:19:50;4.90;;;3.72;;
77864;SDS011;67061;48.524;9.040;2023-02-28T00:22:18;5.30;;;2.92;;
77864;SDS011;67061;48.524;9.040;2023-02-28T00:24:47;5.25;;;2.00;;
77864;SDS011;67061;48.524;9.040;2023-02-28T00:27:14;5.30;;;2.90;;
77864;SDS011;67061;48.524;9.040;2023-02-28T00:29:42;4.68;;;2.05;;
77864;SDS011;67061;48.524;9.040;2023-02-28T00:32:09;4.72;;;2.75;;
77864;SDS011;67061;48.524;9.040;2023-02-28T00:34:36;4.85;;;2.20;;
77864;SDS011;67061;48.524;9.040;2023-02-28T00:37:04;4.65;;;2.53;;
77864;SDS011;67061;48.524;9.040;2023-02-28T00:39:32;4.82;;;2.60;;
77864;SDS011;67061;48.524;9.040;2023-02-28T00:42:01;4.15;;;1.63;;
77864;SDS011;67061;48.524;9.040;2023-02-28T00:44:28;4.47;;;3.03;;
77864;SDS011;67061;48.524;9.040;2023-02-28T00:46:57;4.45;;;2.67;;
77864;SDS011;67061;48.524;9.040;2023-02-28T00:49:24;5.78;;;2.50;;
77864;SDS011;67061;48.524;9.040;2023-02-28T00:51:52;4.32;;;3.00;;
77864;SDS011;67061;48.524;9.040;2023-02-28T00:54:20;3.70;;;1.77;;
77864;SDS011;67061;48.524;9.040;2023-02-28T00:56:47;5.43;;;2.20;;
77864;SDS011;67061;48.524;9.040;2023-02-28T00:59:15;4.82;;;2.10;;
77864;SDS011;67061;48.524;9.040;2023-02-28T01:01:44;4.97;;;2.35;;
77864;SDS011;67061;48.524;9.040;2023-02-28T01:04:13;5.45;;;3.15;;
77864;SDS011;67061;48.524;9.040;2023-02-28T01:06:41;4.15;;;1.67;;
77864;SDS011;67061;48.524;9.040;2023-02-28T01:09:08;4.30;;;2.65;;
77864;SDS011;67061;48.524;9.040;2023-02-28T01:11:36;5.95;;;2.97;;
77864;SDS011;67061;48.524;9.040;2023-02-28T01:14:04;4.40;;;3.25;;
77864;SDS011;67061;48.524;9.040;2023-02-28T01:16:31;4.35;;;2.75;;
77864;SDS011;67061;48.524;9.040;2023-02-28T01:18:58;4.25;;;1.85;;
77864;SDS011;67061;48.524;9.040;2023-02-28T01:21:26;3.45;;;2.45;;
77864;SDS011;67061;48.524;9.040;2023-02-28T01:23:55;4.95;;;3.40;;
77864;SDS011;67061;48.524;9.040;2023-02-28T01:26:23;4.55;;;3.05;;
77864;SDS011;67061;48.524;9.040;2023-02-28T01:28:51;4.68;;;3.17;;
77864;SDS011;67061;48.524;9.040;2023-02-28T01:31:19;3.50;;;1.70;;
77864;SDS011;67061;48.524;9.040;2023-02-28T01:33:47;3.95;;;2.00;;
77864;SDS011;67061;48.524;9.040;2023-02-28T01:36:15;5.10;;;3.35;;
77864;SDS011;67061;48.524;9.040;2023-02-28T01:38:44;4.18;;;3.35;;
77864;SDS011;67061;48.524;9.040;2023-02-28T01:41:14;5.63;;;2.08;;
77864;SDS011;67061;48.524;9.040;2023-02-28T01:43:54;5.05;;;3.80;;
77864;SDS011;67061;48.524;9.040;2023-02-28T01:46:23;4.35;;;2.50;;
77864;SDS011;67061;48.524;9.040;2023-02-28T01:48:51;4.18;;;2.58;;
77864;SDS011;67061;48.524;9.040;2023-02-28T01:51:21;4.40;;;2.03;;
77864;SDS011;67061;48.524;9.040;2023-02-28T01:53:54;4.28;;;1.80;;
77864;SDS011;67061;48.524;9.040;2023-02-28T01:56:25;5.28;;;2.00;;
77864;SDS011;67061;48.524;9.040;2023-02-28T01:58:55;4.47;;;3.20;;
77864;SDS011;67061;48.524;9.040;2023-02-28T02:01:23;5.07;;;3.15;;
77864;SDS011;67061;48.524;9.040;2023-02-28T02:06:21;4.55;;;2.90;;
77864;SDS011;67061;48.524;9.040;2023-02-28T02:08:49;5.05;;;2.80;;
77864;SDS011;67061;48.524;9.040;2023-02-28T02:11:18;3.83;;;1.67;;
77864;SDS011;67061;48.524;9.040;2023-02-28T02:16:43;4.95;;;3.15;;
77864;SDS011;67061;48.524;9.040;2023-02-28T02:22:34;4.65;;;3.42;;
77864;SDS011;67061;48.524;9.040;2023-02-28T02:25:21;6.45;;;2.65;;
77864;SDS011;67061;48.524;9.040;2023-02-28T02:28:04;5.55;;;3.53;;
77864;SDS011;67061;48.524;9.040;2023-02-28T02:31:16;5.00;;;3.25;;
77864;SDS011;67061;48.524;9.040;2023-02-28T02:34:10;4.30;;;1.70;;
77864;SDS011;67061;48.524;9.040;2023-02-28T02:36:56;5.05;;;3.22;;
77864;SDS011;67061;48.524;9.040;2023-02-28T02:39:31;5.13;;;2.25;;
77864;SDS011;67061;48.524;9.040;2023-02-28T02:42:09;7.57;;;3.85;;
77864;SDS011;67061;48.524;9.040;2023-02-28T02:44:42;4.63;;;2.88;;
77864;SDS011;67061;48.524;9.040;2023-02-28T02:47:15;5.05;;;3.40;;
77864;SDS011;67061;48.524;9.040;2023-02-28T02:49:48;7.43;;;3.08;;
77864;SDS011;67061;48.524;9.040;2023-02-28T02:52:18;4.78;;;3.03;;
77864;SDS011;67061;48.524;9.040;2023-02-28T02:54:50;5.53;;;2.40;;
77864;SDS011;67061;48.524;9.040;2023-02-28T02:57:21;5.25;;;3.83;;
77864;SDS011;67061;48.524;9.040;2023-02-28T02:59:53;4.85;;;2.45;;
77864;SDS011;67061;48.524;9.040;2023-02-28T03:02:22;4.50;;;1.95;;
77864;SDS011;67061;48.524;9.040;2023-02-28T03:04:53;5.82;;;4.25;;
77864;SDS011;67061;48.524;9.040;2023-02-28T03:07:26;5.82;;;3.47;;
77864;SDS011;67061;48.524;9.040;2023-02-28T03:09:53;5.93;;;3.40;;
77864;SDS011;67061;48.524;9.040;2023-02-28T03:12:23;6.82;;;3.70;;
77864;SDS011;67061;48.524;9.040;2023-02-28T03:15:08;6.28;;;3.92;;
77864;SDS011;67061;48.524;9.040;2023-02-28T03:17:49;5.75;;;3.75;;
77864;SDS011;67061;48.524;9.040;2023-02-28T03:20:30;5.68;;;3.45;;
77864;SDS011;67061;48.524;9.040;2023-02-28T03:23:08;5.95;;;3.70;;
77864;SDS011;67061;48.524;9.040;2023-02-28T03:25:42;8.30;;;3.88;;
77864;SDS011;67061;48.524;9.040;2023-02-28T03:30:47;4.38;;;2.65;;
77864;SDS011;67061;48.524;9.040;2023-02-28T03:33:19;8.45;;;3.83;;
77864;SDS011;67061;48.524;9.040;2023-02-28T03:35:52;4.10;;;2.33;;
77864;SDS011;67061;48.524;9.040;2023-02-28T03:38:24;6.00;;;4.10;;
77864;SDS011;67061;48.524;9.040;2023-02-28T03:40:57;6.75;;;3.50;;
77864;SDS011;67061;48.524;9.040;2023-02-28T03:43:36;5.93;;;3.38;;
77864;SDS011;67061;48.524;9.040;2023-02-28T03:46:09;5.75;;;2.42;;
77864;SDS011;67061;48.524;9.040;2023-02-28T03:48:40;5.78;;;3.67;;
77864;SDS011;67061;48.524;9.040;2023-02-28T03:51:12;6.32;;;4.53;;
77864;SDS011;67061;48.524;9.040;2023-02-28T03:53:44;6.50;;;4.10;;
77864;SDS011;67061;48.524;9.040;2023-02-28T03:56:14;5.28;;;3.97;;
77864;SDS011;67061;48.524;9.040;2023-02-28T03:58:44;5.95;;;3.63;;
77864;SDS011;67061;48.524;9.040;2023-02-28T04:01:16;7.47;;;3.72;;
77864;SDS011;67061;48.524;9.040;2023-02-28T04:03:48;6.30;;;3.75;;
77864;SDS011;67061;48.524;9.040;2023-02-28T04:06:18;5.57;;;4.15;;
77864;SDS011;67061;48.524;9.040;2023-02-28T04:08:49;6.45;;;4.47;;
77864;SDS011;67061;48.524;9.040;2023-02-28T04:11:22;5.75;;;2.33;;
77864;SDS011;67061;48.524;9.040;2023-02-28T04:13:50;5.68;;;3.60;;
77864;SDS011;67061;48.524;9.040;2023-02-28T04:16:17;5.88;;;2.95;;
77864;SDS011;67061;48.524;9.040;2023-02-28T04:18:44;7.03;;;4.45;;
77864;SDS011;67061;48.524;9.040;2023-02-28T04:21:11;7.65;;;2.97;;
77864;SDS011;67061;48.524;9.040;2023-02-28T04:23:40;7.25;;;3.00;;
77864;SDS011;67061;48.524;9.040;2023-02-28T04:26:07;6.78;;;4.53;;
77864;SDS011;67061;48.524;9.040;2023-02-28T04:28:36;5.57;;;3.70;;
77864;SDS011;67061;48.524;9.040;2023-02-28T04:31:04;8.52;;;2.80;;
77864;SDS011;67061;48.524;9.040;2023-02-28T04:33:32;4.65;;;2.38;;
77864;SDS011;67061;48.524;9.040;2023-02-28T04:35:59;6.38;;;3.20;;
77864;SDS011;67061;48.524;9.040;2023-02-28T04:38:27;6.68;;;4.47;;
77864;SDS011;67061;48.524;9.040;2023-02-28T04:40:58;7.45;;;2.72;;
77864;SDS011;67061;48.524;9.040;2023-02-28T04:43:25;5.95;;;3.80;;
77864;SDS011;67061;48.524;9.040;2023-02-28T04:45:53;4.78;;;2.35;;
77864;SDS011;67061;48.524;9.040;2023-02-28T04:48:21;6.35;;;4.35;;
77864;SDS011;67061;48.524;9.040;2023-02-28T04:50:49;7.35;;;4.28;;
77864;SDS011;67061;48.524;9.040;2023-02-28T04:53:17;12.20;;;7.07;;
77864;SDS011;67061;48.524;9.040;2023-02-28T04:55:45;7.40;;;3.80;;
77864;SDS011;67061;48.524;9.040;2023-02-28T04:58:13;7.13;;;3.08;;
77864;SDS011;67061;48.524;9.040;2023-02-28T05:00:41;5.05;;;2.80;;
77864;SDS011;67061;48.524;9.040;2023-02-28T05:03:08;8.68;;;4.85;;
77864;SDS011;67061;48.524;9.040;2023-02-28T05:05:35;6.00;;;4.60;;
77864;SDS011;67061;48.524;9.040;2023-02-28T05:08:02;6.38;;;4.07;;
77864;SDS011;67061;48.524;9.040;2023-02-28T05:10:30;7.35;;;5.10;;
77864;SDS011;67061;48.524;9.040;2023-02-28T05:12:57;5.60;;;4.28;;
77864;SDS011;67061;48.524;9.040;2023-02-28T05:15:25;8.50;;;3.97;;
77864;SDS011;67061;48.524;9.040;2023-02-28T05:17:52;7.18;;;4.18;;
77864;SDS011;67061;48.524;9.040;2023-02-28T05:20:19;9.38;;;4.63;;
77864;SDS011;67061;48.524;9.040;2023-02-28T05:22:46;8.13;;;4.38;;
77864;SDS011;67061;48.524;9.040;2023-02-28T05:25:16;8.50;;;4.40;;
77864;SDS011;67061;48.524;9.040;2023-02-28T05:27:45;8.02;;;4.88;;
77864;SDS011;67061;48.524;9.040;2023-02-28T05:30:12;7.22;;;4.88;;
77864;SDS011;67061;48.524;9.040;2023-02-28T05:32:41;8.57;;;4.45;;
77864;SDS011;67061;48.524;9.040;2023-02-28T05:35:09;7.55;;;5.05;;
77864;SDS011;67061;48.524;9.040;2023-02-28T05:37:36;6.10;;;3.53;;
77864;SDS011;67061;48.524;9.040;2023-02-28T05:40:04;7.97;;;5.47;;
77864;SDS011;67061;48.524;9.040;2023-02-28T05:42:35;7.45;;;4.38;;
77864;SDS011;67061;48.524;9.040;2023-02-28T05:45:02;7.93;;;4.75;;
77864;SDS011;67061;48.524;9.040;2023-02-28T05:47:30;8.95;;;5.18;;
77864;SDS011;67061;48.524;9.040;2023-02-28T05:49:58;7.05;;;4.50;;
77864;SDS011;67061;48.524;9.040;2023-02-28T05:52:25;8.30;;;5.05;;
77864;SDS011;67061;48.524;9.040;2023-02-28T05:54:52;6.82;;;4.35;;
77864;SDS011;67061;48.524;9.040;2023-02-28T05:57:19;7.85;;;5.03;;
77864;SDS011;67061;48.524;9.040;2023-02-28T05:59:46;7.68;;;5.07;;
77864;SDS011;67061;48.524;9.040;2023-02-28T06:02:14;6.90;;;3.83;;
77864;SDS011;67061;48.524;9.040;2023-02-28T06:04:42;6.82;;;3.53;;
77864;SDS011;67061;48.524;9.040;2023-02-28T06:07:11;7.50;;;3.25;;
77864;SDS011;67061;48.524;9.040;2023-02-28T06:09:38;9.13;;;5.60;;
77864;SDS011;67061;48.524;9.040;2023-02-28T06:12:06;7.80;;;3.42;;
77864;SDS011;67061;48.524;9.040;2023-02-28T06:14:34;8.02;;;5.53;;
77864;SDS011;67061;48.524;9.040;2023-02-28T06:17:02;8.25;;;3.97;;
77864;SDS011;67061;48.524;9.040;2023-02-28T06:19:29;7.13;;;3.95;;
77864;SDS011;67061;48.524;9.040;2023-02-28T06:21:57;8.32;;;5.70;;
77864;SDS011;67061;48.524;9.040;2023-02-28T06:24:26;8.40;;;5.15;;
77864;SDS011;67061;48.524;9.040;2023-02-28T06:26:54;7.38;;;3.80;;
77864;SDS011;67061;48.524;9.040;2023-02-28T06:29:21;9.57;;;4.18;;
77864;SDS011;67061;48.524;9.040;2023-02-28T06:31:48;9.05;;;5.90;;
77864;SDS011;67061;48.524;9.040;2023-02-28T06:34:15;9.45;;;5.32;;
77864;SDS011;67061;48.524;9.040;2023-02-28T06:36:42;8.30;;;4.78;;
77864;SDS011;67061;48.524;9.040;2023-02-28T06:39:09;6.72;;;3.65;;
77864;SDS011;67061;48.524;9.040;2023-02-28T06:41:37;7.28;;;5.53;;
77864;SDS011;67061;48.524;9.040;2023-02-28T06:44:05;7.90;;;5.80;;
77864;SDS011;67061;48.524;9.040;2023-02-28T06:46:38;9.07;;;5.43;;
77864;SDS011;67061;48.524;9.040;2023-02-28T06:49:05;9.15;;;5.63;;
77864;SDS011;67061;48.524;9.040;2023-02-28T06:51:34;8.23;;;3.70;;
77864;SDS011;67061;48.524;9.040;2023-02-28T06:54:02;9.15;;;5.53;;
77864;SDS011;67061;48.524;9.040;2023-02-28T06:56:29;7.88;;;5.20;;
77864;SDS011;67061;48.524;9.040;2023-02-28T06:58:57;8.57;;;5.13;;
77864;SDS011;67061;48.524;9.040;2023-02-28T07:01:24;7.55;;;3.58;;
77864;SDS011;67061;48.524;9.040;2023-02-28T07:03:53;7.90;;;5.68;;
77864;SDS011;67061;48.524;9.040;2023-02-28T07:06:20;8.73;;;4.82;;
77864;SDS011;67061;48.524;9.040;2023-02-28T07:08:48;8.60;;;5.43;;
77864;SDS011;67061;48.524;9.040;2023-02-28T07:11:15;9.25;;;5.60;;
77864;SDS011;67061;48.524;9.040;2023-02-28T07:13:42;10.90;;;5.70;;
77864;SDS011;67061;48.524;9.040;2023-02-28T07:16:11;9.32;;;6.43;;
77864;SDS011;67061;48.524;9.040;2023-02-28T07:18:38;9.68;;;4.45;;
77864;SDS011;67061;48.524;9.040;2023-02-28T07:21:05;7.18;;;4.28;;
77864;SDS011;67061;48.524;9.040;2023-02-28T07:23:34;9.65;;;6.05;;
77864;SDS011;67061;48.524;9.040;2023-02-28T07:26:03;9.50;;;5.47;;
77864;SDS011;67061;48.524;9.040;2023-02-28T07:28:30;9.77;;;4.28;;
77864;SDS011;67061;48.524;9.040;2023-02-28T07:31:02;8.25;;;4.47;;
77864;SDS011;67061;48.524;9.040;2023-02-28T07:33:31;8.52;;;4.32;;
77864;SDS011;67061;48.524;9.040;2023-02-28T07:36:01;9.30;;;6.30;;
77864;SDS011;67061;48.524;9.040;2023-02-28T07:38:29;9.73;;;6.28;;
77864;SDS011;67061;48.524;9.040;2023-02-28T07:40:56;10.25;;;6.00;;
77864;SDS011;67061;48.524;9.040;2023-02-28T07:43:23;9.98;;;6.10;;
77864;SDS011;67061;48.524;9.040;2023-02-28T07:45:50;9.38;;;4.95;;
77864;SDS011;67061;48.524;9.040;2023-02-28T07:48:17;10.05;;;4.68;;
77864;SDS011;67061;48.524;9.040;2023-02-28T07:50:45;8.60;;;5.75;;
77864;SDS011;67061;48.524;9.040;2023-02-28T07:53:21;8.68;;;6.10;;
77864;SDS011;67061;48.524;9.040;2023-02-28T07:55:48;10.77;;;6.20;;
77864;SDS011;67061;48.524;9.040;2023-02-28T07:58:15;11.23;;;6.88;;
77864;SDS011;67061;48.524;9.040;2023-02-28T08:00:42;10.80;;;5.72;;
77864;SDS011;67061;48.524;9.040;2023-02-28T08:03:09;10.75;;;4.57;;
77864;SDS011;67061;48.524;9.040;2023-02-28T08:05:39;9.02;;;4.47;;
77864;SDS011;67061;48.524;9.040;2023-02-28T08:08:07;9.23;;;4.93;;
77864;SDS011;67061;48.524;9.040;2023-02-28T08:10:36;11.55;;;4.95;;
77864;SDS011;67061;48.524;9.040;2023-02-28T08:13:03;10.48;;;5.60;;
77864;SDS011;67061;48.524;9.040;2023-02-28T08:15:33;11.07;;;5.63;;
77864;SDS011;67061;48.524;9.040;2023-02-28T08:18:01;9.85;;;4.97;;
77864;SDS011;67061;48.524;9.040;2023-02-28T08:20:28;10.25;;;5.10;;
77864;SDS011;67061;48.524;9.040;2023-02-28T08:22:55;9.90;;;5.10;;
77864;SDS011;67061;48.524;9.040;2023-02-28T08:25:24;10.73;;;5.15;;
77864;SDS011;67061;48.524;9.040;2023-02-28T08:27:51;12.63;;;6.75;;
77864;SDS011;67061;48.524;9.040;2023-02-28T08:30:18;9.50;;;4.93;;
77864;SDS011;67061;48.524;9.040;2023-02-28T08:32:45;10.50;;;5.47;;
77864;SDS011;67061;48.524;9.040;2023-02-28T08:35:12;10.13;;;6.88;;
77864;SDS011;67061;48.524;9.040;2023-02-28T08:37:39;10.60;;;6.25;;
77864;SDS011;67061;48.524;9.040;2023-02-28T08:40:06;12.35;;;6.55;;
77864;SDS011;67061;48.524;9.040;2023-02-28T08:42:36;10.98;;;6.82;;
77864;SDS011;67061;48.524;9.040;2023-02-28T08:45:03;13.10;;;7.70;;
77864;SDS011;67061;48.524;9.040;2023-02-28T08:47:30;12.90;;;7.95;;
77864;SDS011;67061;48.524;9.040;2023-02-28T08:49:57;10.55;;;5.45;;
77864;SDS011;67061;48.524;9.040;2023-02-28T08:52:24;14.80;;;8.20;;
77864;SDS011;67061;48.524;9.040;2023-02-28T08:54:51;13.02;;;6.50;;
77864;SDS011;67061;48.524;9.040;2023-02-28T08:57:18;11.40;;;7.30;;
77864;SDS011;67061;48.524;9.040;2023-02-28T08:59:46;11.27;;;7.07;;
77864;SDS011;67061;48.524;9.040;2023-02-28T09:02:14;11.57;;;6.60;;
77864;SDS011;67061;48.524;9.040;2023-02-28T09:04:41;12.65;;;7.43;;
77864;SDS011;67061;48.524;9.040;2023-02-28T09:07:10;12.48;;;7.85;;
77864;SDS011;67061;48.524;9.040;2023-02-28T09:09:37;12.10;;;5.75;;
77864;SDS011;67061;48.524;9.040;2023-02-28T09:12:19;11.02;;;6.18;;
77864;SDS011;67061;48.524;9.040;2023-02-28T09:14:47;13.00;;;6.88;;
77864;SDS011;67061;48.524;9.040;2023-02-28T09:17:14;11.60;;;6.13;;
77864;SDS011;67061;48.524;9.040;2023-02-28T09:19:41;10.77;;;7.22;;
77864;SDS011;67061;48.524;9.040;2023-02-28T09:22:08;10.27;;;5.80;;
77864;SDS011;67061;48.524;9.040;2023-02-28T09:24:36;11.57;;;5.97;;
77864;SDS011;67061;48.524;9.040;2023-02-28T09:27:03;12.85;;;7.28;;
77864;SDS011;67061;48.524;9.040;2023-02-28T09:29:31;12.68;;;6.50;;
77864;SDS011;67061;48.524;9.040;2023-02-28T09:32:00;11.55;;;7.00;;
77864;SDS011;67061;48.524;9.040;2023-02-28T09:34:27;13.13;;;6.68;;
77864;SDS011;67061;48.524;9.040;2023-02-28T09:36:55;15.88;;;6.90;;
77864;SDS011;67061;48.524;9.040;2023-02-28T09:39:23;13.13;;;6.05;;
77864;SDS011;67061;48.524;9.040;2023-02-28T09:41:52;12.10;;;5.97;;
77864;SDS011;67061;48.524;9.040;2023-02-28T09:44:21;11.75;;;7.20;;
77864;SDS011;67061;48.524;9.040;2023-02-28T09:46:55;14.18;;;6.70;;
77864;SDS011;67061;48.524;9.040;2023-02-28T09:49:33;13.57;;;6.30;;
77864;SDS011;67061;48.524;9.040;2023-02-28T09:52:05;12.63;;;7.68;;
77864;SDS011;67061;48.524;9.040;2023-02-28T09:54:36;11.93;;;5.95;;
77864;SDS011;67061;48.524;9.040;2023-02-28T09:57:06;11.88;;;6.45;;
77864;SDS011;67061;48.524;9.040;2023-02-28T09:59:38;12.77;;;6.40;;
77864;SDS011;67061;48.524;9.040;2023-02-28T10:02:13;10.55;;;6.25;;
77864;SDS011;67061;48.524;9.040;2023-02-28T10:05:09;13.00;;;7.93;;
77864;SDS011;67061;48.524;9.040;2023-02-28T10:07:44;12.30;;;6.60;;
77864;SDS011;67061;48.524;9.040;2023-02-28T10:10:23;14.30;;;8.23;;
77864;SDS011;67061;48.524;9.040;2023-02-28T10:12:54;13.30;;;6.40;;
77864;SDS011;67061;48.524;9.040;2023-02-28T10:15:25;10.10;;;5.93;;
77864;SDS011;67061;48.524;9.040;2023-02-28T10:17:56;11.50;;;6.18;;
77864;SDS011;67061;48.524;9.040;2023-02-28T10:20:27;10.52;;;7.30;;
77864;SDS011;67061;48.524;9.040;2023-02-28T10:23:00;13.70;;;6.70;;
77864;SDS011;67061;48.524;9.040;2023-02-28T10:25:32;12.38;;;6.78;;
77864;SDS011;67061;48.524;9.040;2023-02-28T10:28:01;10.20;;;6.22;;
77864;SDS011;67061;48.524;9.040;2023-02-28T10:30:36;11.52;;;5.72;;
77864;SDS011;67061;48.524;9.040;2023-02-28T10:33:08;10.07;;;5.68;;
77864;SDS011;67061;48.524;9.040;2023-02-28T10:35:46;10.95;;;6.40;;
77864;SDS011;67061;48.524;9.040;2023-02-28T10:38:15;13.05;;;6.75;;
77864;SDS011;67061;48.524;9.040;2023-02-28T10:40:45;12.15;;;6.03;;
77864;SDS011;67061;48.524;9.040;2023-02-28T10:43:19;10.75;;;6.45;;
77864;SDS011;67061;48.524;9.040;2023-02-28T10:45:53;14.32;;;7.47;;
77864;SDS011;67061;48.524;9.040;2023-02-28T10:48:33;12.15;;;6.85;;
77864;SDS011;67061;48.524;9.040;2023-02-28T10:51:05;11.30;;;6.40;;
77864;SDS011;67061;48.524;9.040;2023-02-28T10:53:35;11.18;;;6.40;;
77864;SDS011;67061;48.524;9.040;2023-02-28T10:56:06;12.73;;;7.05;;
77864;SDS011;67061;48.524;9.040;2023-02-28T10:58:49;11.38;;;6.50;;
77864;SDS011;67061;48.524;9.040;2023-02-28T11:01:18;12.05;;;6.85;;
77864;SDS011;67061;48.524;9.040;2023-02-28T11:03:47;10.52;;;6.13;;
77864;SDS011;67061;48.524;9.040;2023-02-28T11:06:17;13.15;;;6.78;;
77864;SDS011;67061;48.524;9.040;2023-02-28T11:08:47;12.20;;;6.18;;
77864;SDS011;67061;48.524;9.040;2023-02-28T11:11:16;11.18;;;6.43;;
77864;SDS011;67061;48.524;9.040;2023-02-28T11:13:44;11.77;;;6.53;;
77864;SDS011;67061;48.524;9.040;2023-02-28T11:16:12;10.63;;;5.97;;
77864;SDS011;67061;48.524;9.040;2023-02-28T11:18:41;11.20;;;6.88;;
77864;SDS011;67061;48.524;9.040;2023-02-28T11:21:16;12.43;;;8.65;;
77864;SDS011;67061;48.524;9.040;2023-02-28T11:23:46;12.77;;;6.65;;
77864;SDS011;67061;48.524;9.040;2023-02-28T11:29:08;11.45;;;6.82;;
77864;SDS011;67061;48.524;9.040;2023-02-28T11:31:45;10.20;;;5.65;;
77864;SDS011;67061;48.524;9.040;2023-02-28T11:34:28;12.27;;;8.73;;
77864;SDS011;67061;48.524;9.040;2023-02-28T11:36:57;11.32;;;7.10;;
77864;SDS011;67061;48.524;9.040;2023-02-28T11:39:25;13.25;;;6.20;;
77864;SDS011;67061;48.524;9.040;2023-02-28T11:41:57;12.65;;;7.13;;
77864;SDS011;67061;48.524;9.040;2023-02-28T11:44:38;13.23;;;7.55;;
77864;SDS011;67061;48.524;9.040;2023-02-28T11:47:22;11.57;;;6.45;;
77864;SDS011;67061;48.524;9.040;2023-02-28T11:50:04;13.10;;;7.65;;
77864;SDS011;67061;48.524;9.040;2023-02-28T11:52:50;11.57;;;6.70;;
77864;SDS011;67061;48.524;9.040;2023-02-28T11:55:20;10.95;;;5.57;;
77864;SDS011;67061;48.524;9.040;2023-02-28T11:58:14;11.18;;;6.28;;
77864;SDS011;67061;48.524;9.040;2023-02-28T12:01:07;12.35;;;7.38;;
77864;SDS011;67061;48.524;9.040;2023-02-28T12:03:43;13.95;;;7.55;;
77864;SDS011;67061;48.524;9.040;2023-02-28T12:06:19;13.13;;;7.18;;
77864;SDS011;67061;48.524;9.040;2023-02-28T12:09:02;12.07;;;6.70;;
77864;SDS011;67061;48.524;9.040;2023-02-28T12:11:37;13.32;;;9.05;;
77864;SDS011;67061;48.524;9.040;2023-02-28T12:17:18;12.82;;;7.47;;
77864;SDS011;67061;48.524;9.040;2023-02-28T12:19:54;11.80;;;6.93;;
77864;SDS011;67061;48.524;9.040;2023-02-28T12:22:28;13.68;;;7.18;;
77864;SDS011;67061;48.524;9.040;2023-02-28T12:25:03;12.68;;;7.05;;
77864;SDS011;67061;48.524;9.040;2023-02-28T12:27:57;11.55;;;6.82;;
77864;SDS011;67061;48.524;9.040;2023-02-28T12:30:24;10.80;;;6.80;;
77864;SDS011;67061;48.524;9.040;2023-02-28T12:32:55;12.73;;;7.20;;
77864;SDS011;67061;48.524;9.040;2023-02-28T12:35:30;11.05;;;6.85;;
77864;SDS011;67061;48.524;9.040;2023-02-28T12:38:01;13.27;;;7.70;;
77864;SDS011;67061;48.524;9.040;2023-02-28T12:40:44;10.77;;;6.88;;
77864;SDS011;67061;48.524;9.040;2023-02-28T12:43:15;11.43;;;6.97;;
77864;SDS011;67061;48.524;9.040;2023-02-28T12:45:45;12.07;;;7.32;;
77864;SDS011;67061;48.524;9.040;2023-02-28T12:48:18;15.55;;;8.05;;
77864;SDS011;67061;48.524;9.040;2023-02-28T12:50:50;11.20;;;7.32;;
77864;SDS011;67061;48.524;9.040;2023-02-28T12:53:18;11.05;;;7.00;;
77864;SDS011;67061;48.524;9.040;2023-02-28T12:55:55;12.43;;;6.97;;
77864;SDS011;67061;48.524;9.040;2023-02-28T12:58:31;11.48;;;6.88;;
77864;SDS011;67061;48.524;9.040;2023-02-28T13:09:51;10.80;;;6.43;;
77864;SDS011;67061;48.524;9.040;2023-02-28T13:12:21;9.45;;;6.80;;
77864;SDS011;67061;48.524;9.040;2023-02-28T13:14:48;11.88;;;8.00;;
77864;SDS011;67061;48.524;9.040;2023-02-28T13:17:17;11.30;;;7.28;;
77864;SDS011;67061;48.524;9.040;2023-02-28T13:19:46;10.90;;;7.10;;
77864;SDS011;67061;48.524;9.040;2023-02-28T13:31:33;12.43;;;6.97;;
77864;SDS011;67061;48.524;9.040;2023-02-28T13:34:46;12.10;;;7.75;;
77864;SDS011;67061;48.524;9.040;2023-02-28T13:37:41;11.93;;;7.30;;
77864;SDS011;67061;48.524;9.040;2023-02-28T13:40:29;13.15;;;7.70;;
77864;SDS011;67061;48.524;9.040;2023-02-28T13:43:02;12.25;;;7.50;;
77864;SDS011;67061;48.524;9.040;2023-02-28T13:45:33;11.63;;;7.57;;
77864;SDS011;67061;48.524;9.040;2023-02-28T13:48:05;11.48;;;7.47;;
77864;SDS011;67061;48.524;9.040;2023-02-28T13:50:44;12.15;;;7.32;;
77864;SDS011;67061;48.524;9.040;2023-02-28T13:56:07;11.88;;;7.63;;
77864;SDS011;67061;48.524;9.040;2023-02-28T13:58:50;10.73;;;7.20;;
77864;SDS011;67061;48.524;9.040;2023-02-28T14:01:27;12.07;;;7.78;;
77864;SDS011;67061;48.524;9.040;2023-02-28T14:07:03;12.75;;;7.22;;
77864;SDS011;67061;48.524;9.040;2023-02-28T14:09:39;10.90;;;7.53;;
77864;SDS011;67061;48.524;9.040;2023-02-28T14:18:27;11.80;;;7.72;;
77864;SDS011;67061;48.524;9.040;2023-02-28T14:20:58;11.80;;;8.13;;
77864;SDS011;67061;48.524;9.040;2023-02-28T14:26:37;11.70;;;7.32;;
77864;SDS011;67061;48.524;9.040;2023-02-28T14:29:33;12.35;;;7.82;;
77864;SDS011;67061;48.524;9.040;2023-02-28T14:32:31;12.45;;;7.63;;
77864;SDS011;67061;48.524;9.040;2023-02-28T14:35:03;12.25;;;7.05;;
77864;SDS011;67061;48.524;9.040;2023-02-28T14:37:39;10.70;;;6.72;;
77864;SDS011;67061;48.524;9.040;2023-02-28T14:40:13;12.20;;;7.22;;
77864;SDS011;67061;48.524;9.040;2023-02-28T14:42:46;12.25;;;7.07;;
77864;SDS011;67061;48.524;9.040;2023-02-28T14:45:18;11.50;;;6.93;;
77864;SDS011;67061;48.524;9.040;2023-02-28T14:47:46;13.13;;;7.55;;
77864;SDS011;67061;48.524;9.040;2023-02-28T14:50:18;13.00;;;7.85;;
77864;SDS011;67061;48.524;9.040;2023-02-28T14:52:47;15.40;;;7.53;;
77864;SDS011;67061;48.524;9.040;2023-02-28T14:55:19;13.48;;;7.85;;
77864;SDS011;67061;48.524;9.040;2023-02-28T14:57:51;10.55;;;6.80;;
77864;SDS011;67061;48.524;9.040;2023-02-28T15:00:21;13.75;;;6.82;;
77864;SDS011;67061;48.524;9.040;2023-02-28T15:02:51;12.90;;;7.28;;
77864;SDS011;67061;48.524;9.040;2023-02-28T15:05:23;11.88;;;7.60;;
77864;SDS011;67061;48.524;9.040;2023-02-28T15:08:02;12.05;;;7.20;;
77864;SDS011;67061;48.524;9.040;2023-02-28T15:10:33;11.38;;;7.15;;
77864;SDS011;67061;48.524;9.040;2023-02-28T15:13:01;10.43;;;6.63;;
77864;SDS011;67061;48.524;9.040;2023-02-28T15:15:35;12.55;;;7.88;;
77864;SDS011;67061;48.524;9.040;2023-02-28T15:18:10;13.43;;;7.40;;
77864;SDS011;67061;48.524;9.040;2023-02-28T15:20:43;12.23;;;6.85;;
77864;SDS011;67061;48.524;9.040;2023-02-28T15:23:11;11.27;;;6.80;;
77864;SDS011;67061;48.524;9.040;2023-02-28T15:25:40;10.93;;;6.25;;
77864;SDS011;67061;48.524;9.040;2023-02-28T15:28:09;11.40;;;6.20;;
77864;SDS011;67061;48.524;9.040;2023-02-28T15:30:49;10.32;;;6.03;;
77864;SDS011;67061;48.524;9.040;2023-02-28T15:33:19;11.90;;;6.78;;
77864;SDS011;67061;48.524;9.040;2023-02-28T15:35:48;10.70;;;6.13;;
77864;SDS011;67061;48.524;9.040;2023-02-28T15:38:16;10.35;;;6.22;;
77864;SDS011;67061;48.524;9.040;2023-02-28T15:40:49;11.23;;;6.45;;
77864;SDS011;67061;48.524;9.040;2023-02-28T15:43:23;10.85;;;6.55;;
77864;SDS011;67061;48.524;9.040;2023-02-28T15:45:52;11.80;;;7.25;;
77864;SDS011;67061;48.524;9.040;2023-02-28T15:48:24;11.40;;;6.65;;
77864;SDS011;67061;48.524;9.040;2023-02-28T15:50:55;11.18;;;6.90;;
77864;SDS011;67061;48.524;9.040;2023-02-28T15:53:24;12.20;;;6.38;;